Time;durP1;ratioP1;P1;durP2;ratioP2;P2;SDS_P1;SDS_P2;PMS_P1;PMS_P2;Temp;Humidity;BMP_temperature;BMP_pressure;BME280_temperature;BME280_humidity;BME280_pressure;Samples;Min_cycle;Max_cycle;Signal;HPM_P1;HPM_P2
2023/06/25 00:02:45;;;;;;;7.50;5.50;;;17.30;99.90;;;;;;10359686;28;20312;-78
2023/06/25 00:08:06;;;;;;;7.60;6.43;;;17.30;99.90;;;;;;10357377;28;20229;-79
2023/06/25 00:13:28;;;;;;;10.02;7.65;;;17.00;1.00;;;;;;10359561;28;20197;-77
2023/06/25 00:18:49;;;;;;;9.63;7.65;;;16.70;99.90;;;;;;10365171;28;20193;-80
2023/06/25 00:24:10;;;;;;;10.18;7.55;;;16.50;99.90;;;;;;10388109;28;20250;-79
2023/06/25 00:29:33;;;;;;;10.05;7.38;;;16.40;1.00;;;;;;10412591;28;20263;-81
2023/06/25 00:34:58;;;;;;;11.18;7.30;;;16.40;1.00;;;;;;10411859;28;20193;-77
2023/06/25 00:40:19;;;;;;;10.35;7.35;;;16.40;1.00;;;;;;10370547;28;20209;-78
2023/06/25 00:45:44;;;;;;;8.88;7.07;;;16.40;1.00;;;;;;10360517;28;20197;-77
2023/06/25 00:51:06;;;;;;;11.07;6.40;;;16.40;1.00;;;;;;10385247;28;20235;-78
2023/06/25 00:56:31;;;;;;;8.55;6.30;;;16.30;1.00;;;;;;10357865;28;20211;-78
2023/06/25 01:01:58;;;;;;;16.80;7.63;;;16.20;1.00;;;;;;10357172;28;20228;-80
2023/06/25 01:07:22;;;;;;;8.68;6.90;;;16.20;1.00;;;;;;10357220;28;20206;-77
2023/06/25 01:12:45;;;;;;;6.75;5.80;;;16.20;1.00;;;;;;10342100;28;20197;-80
2023/06/25 01:18:06;;;;;;;8.30;5.95;;;16.20;99.90;;;;;;10342318;28;20211;-78
2023/06/25 01:23:29;;;;;;;8.85;6.30;;;16.20;30.30;;;;;;10373012;28;20208;-77
2023/06/25 01:28:55;;;;;;;8.85;6.57;;;16.10;1.00;;;;;;10375871;28;20327;-77
2023/06/25 01:34:21;;;;;;;8.23;5.55;;;16.00;1.00;;;;;;10356418;28;20205;-78
2023/06/25 01:39:42;;;;;;;6.40;5.50;;;16.10;99.90;;;;;;10355384;28;20207;-77
2023/06/25 01:45:07;;;;;;;7.07;5.75;;;16.10;99.90;;;;;;10354226;28;20195;-77
2023/06/25 01:50:28;;;;;;;7.90;6.18;;;16.10;99.90;;;;;;10391930;28;20251;-79
2023/06/25 01:55:52;;;;;;;6.75;5.95;;;16.10;1.00;;;;;;10373467;28;20209;-78
2023/06/25 02:01:13;;;;;;;9.68;6.40;;;15.90;1.00;;;;;;10354516;28;20275;-77
2023/06/25 02:06:34;;;;;;;7.20;5.50;;;15.90;99.90;;;;;;10355128;28;20203;-77
2023/06/25 02:11:56;;;;;;;6.60;5.38;;;15.90;99.90;;;;;;10354369;28;20240;-78
2023/06/25 02:17:17;;;;;;;8.98;6.00;;;15.90;99.90;;;;;;10357125;28;20213;-79
2023/06/25 02:22:38;;;;;;;6.60;5.63;;;15.90;99.90;;;;;;10391454;28;20200;-77
2023/06/25 02:28:00;;;;;;;6.38;4.57;;;16.00;1.00;;;;;;10394122;28;20202;-78
2023/06/25 02:33:21;;;;;;;7.18;5.25;;;16.10;1.00;;;;;;10380150;28;20257;-78
2023/06/25 02:38:42;;;;;;;6.50;4.95;;;16.10;1.00;;;;;;10403829;28;20279;-77
2023/06/25 02:44:04;;;;;;;6.30;4.97;;;16.10;1.00;;;;;;10416382;28;20195;-79
2023/06/25 02:49:25;;;;;;;6.15;4.43;;;16.10;1.00;;;;;;10354960;28;20233;-78
2023/06/25 02:54:46;;;;;;;6.07;4.57;;;16.10;96.70;;;;;;10388105;28;20356;-80
2023/06/25 03:00:07;;;;;;;6.35;4.60;;;16.10;1.00;;;;;;10379458;28;20211;-79
2023/06/25 03:05:32;;;;;;;8.52;5.00;;;16.10;99.90;;;;;;10361902;28;20463;-78
2023/06/25 03:10:54;;;;;;;6.60;5.10;;;16.10;99.90;;;;;;10360366;28;20561;-77
2023/06/25 03:16:15;;;;;;;8.15;5.63;;;16.20;99.90;;;;;;10361367;28;20205;-77
2023/06/25 03:21:36;;;;;;;6.30;5.05;;;16.20;99.90;;;;;;10375435;28;20210;-77
2023/06/25 03:26:58;;;;;;;9.10;4.55;;;16.20;1.00;;;;;;10400934;28;20214;-78
2023/06/25 03:32:19;;;;;;;6.28;4.60;;;16.20;1.00;;;;;;10370256;28;20231;-78
2023/06/25 03:37:41;;;;;;;6.03;4.50;;;16.30;1.00;;;;;;10374011;28;20216;-78
2023/06/25 03:43:03;;;;;;;6.95;4.95;;;16.30;1.00;;;;;;10358408;28;20193;-77
2023/06/25 03:48:27;;;;;;;5.03;4.53;;;16.40;1.00;;;;;;10382184;28;20222;-77
2023/06/25 03:53:48;;;;;;;6.72;4.80;;;16.30;1.00;;;;;;10371333;28;20207;-79
2023/06/25 03:59:09;;;;;;;6.78;4.40;;;16.40;10.80;;;;;;10394873;28;20204;-77
2023/06/25 04:04:31;;;;;;;5.22;4.68;;;16.40;99.90;;;;;;10387545;28;20242;-77
2023/06/25 04:09:52;;;;;;;11.43;4.68;;;16.50;99.90;;;;;;10413273;28;20223;-79
2023/06/25 04:15:15;;;;;;;5.03;4.43;;;16.50;1.00;;;;;;10369677;28;20200;-78
2023/06/25 04:20:37;;;;;;;4.80;3.90;;;16.50;99.90;;;;;;10379168;28;20227;-80
2023/06/25 04:25:58;;;;;;;7.47;4.38;;;16.60;99.90;;;;;;10398459;28;20531;-77
2023/06/25 04:31:23;;;;;;;5.70;4.53;;;16.70;99.90;;;;;;10372080;28;20229;-77
2023/06/25 04:36:46;;;;;;;6.53;4.05;;;16.70;1.00;;;;;;10371871;28;20203;-77
2023/06/25 04:42:07;;;;;;;4.55;3.95;;;16.70;1.00;;;;;;10356811;28;20238;-77
2023/06/25 04:47:29;;;;;;;6.38;4.88;;;16.80;1.00;;;;;;10371443;28;20220;-77
2023/06/25 04:52:52;;;;;;;11.20;4.47;;;16.90;1.00;;;;;;10348080;28;20230;-77
2023/06/25 04:58:13;;;;;;;5.68;4.00;;;17.00;1.00;;;;;;10378671;28;20541;-77
2023/06/25 05:03:35;;;;;;;6.43;4.15;;;17.10;1.00;;;;;;10372638;28;20234;-79
2023/06/25 05:08:56;;;;;;;5.68;3.78;;;17.20;99.90;;;;;;10356867;28;20206;-77
2023/06/25 05:14:18;;;;;;;5.55;4.05;;;17.30;99.90;;;;;;10357138;28;20281;-80
2023/06/25 05:19:40;;;;;;;3.65;3.35;;;17.50;1.00;;;;;;10370109;28;20231;-78
2023/06/25 05:25:01;;;;;;;5.00;4.22;;;17.70;1.00;;;;;;10385752;28;20220;-77
2023/06/25 05:30:22;;;;;;;5.13;3.70;;;17.90;99.90;;;;;;10356643;28;20409;-79
2023/06/25 05:35:44;;;;;;;5.85;4.40;;;18.00;99.90;;;;;;10355516;28;20190;-76
2023/06/25 05:41:05;;;;;;;5.55;4.00;;;18.00;99.90;;;;;;10355867;28;20208;-77
2023/06/25 05:46:26;;;;;;;8.35;4.28;;;18.20;1.00;;;;;;10356075;28;20190;-78
2023/06/25 05:51:48;;;;;;;4.68;3.90;;;18.40;1.00;;;;;;10377384;28;20413;-78
2023/06/25 05:57:09;;;;;;;6.03;4.45;;;18.60;1.00;;;;;;10363443;28;20201;-77
2023/06/25 06:02:30;;;;;;;6.85;3.80;;;18.90;99.90;;;;;;10355471;28;20235;-78
2023/06/25 06:07:52;;;;;;;4.38;3.72;;;19.00;99.90;;;;;;10353844;28;20221;-78
2023/06/25 06:13:13;;;;;;;7.10;3.50;;;19.20;1.00;;;;;;10355820;28;20229;-78
2023/06/25 06:18:34;;;;;;;4.95;3.60;;;19.40;1.00;;;;;;10359396;28;20189;-78
2023/06/25 06:23:56;;;;;;;5.22;3.00;;;19.60;1.00;;;;;;10387500;28;20219;-78
2023/06/25 06:29:19;;;;;;;4.18;3.40;;;19.80;99.90;;;;;;10394452;28;20220;-78
2023/06/25 06:34:41;;;;;;;3.10;2.80;;;20.10;99.90;;;;;;10394240;28;20276;-78
2023/06/25 06:40:03;;;;;;;5.30;3.00;;;20.40;1.40;;;;;;10359883;28;20205;-78
2023/06/25 06:45:24;;;;;;;5.35;3.10;;;20.90;1.00;;;;;;10354692;28;20217;-79
2023/06/25 06:50:45;;;;;;;8.23;4.03;;;21.40;1.00;;;;;;10365722;28;20456;-78
2023/06/25 06:56:07;;;;;;;4.78;3.22;;;22.00;1.00;;;;;;10386499;28;20193;-78
2023/06/25 07:01:28;;;;;;;8.43;3.33;;;22.70;1.00;;;;;;10394844;28;20199;-78
2023/06/25 07:06:49;;;;;;;4.10;3.13;;;23.20;1.00;;;;;;10380196;28;20201;-78
2023/06/25 07:12:11;;;;;;;9.50;3.20;;;23.70;1.00;;;;;;10352953;28;20304;-80
2023/06/25 07:17:32;;;;;;;5.00;2.78;;;24.10;99.90;;;;;;10354911;28;20261;-79
2023/06/25 07:22:53;;;;;;;3.75;2.47;;;24.50;99.90;;;;;;10384569;28;20299;-78
2023/06/25 07:28:15;;;;;;;8.52;3.20;;;25.10;99.90;;;;;;10402113;28;20193;-79
2023/06/25 07:33:36;;;;;;;3.05;2.47;;;25.40;99.90;;;;;;10395422;28;20221;-79
2023/06/25 07:38:58;;;;;;;3.15;2.38;;;25.70;99.90;;;;;;10373806;28;20194;-78
2023/06/25 07:44:19;;;;;;;3.15;2.70;;;25.90;99.90;;;;;;10360565;28;20194;-77
2023/06/25 07:49:55;;;;;;;5.07;2.63;;;26.30;99.90;;;;;;10367652;28;20279;-78
2023/06/25 07:55:16;;;;;;;4.25;3.03;;;26.80;99.90;;;;;;10400782;28;20190;-80
2023/06/25 08:00:37;;;;;;;3.83;2.90;;;27.20;99.90;;;;;;10371936;28;20237;-78
2023/06/25 08:05:58;;;;;;;6.18;3.03;;;27.40;99.90;;;;;;10358850;28;20234;-78
2023/06/25 08:11:20;;;;;;;6.07;2.80;;;27.50;99.90;;;;;;10359745;28;20220;-78
2023/06/25 08:16:41;;;;;;;3.40;2.78;;;27.30;99.90;;;;;;10359154;28;20212;-77
2023/06/25 08:22:02;;;;;;;5.88;2.97;;;27.70;99.90;;;;;;10390409;28;20221;-79
2023/06/25 08:27:24;;;;;;;5.45;3.28;;;27.30;99.90;;;;;;10398436;28;20271;-77
2023/06/25 08:32:45;;;;;;;4.15;2.97;;;27.20;99.90;;;;;;10364016;28;20304;-78
2023/06/25 08:38:06;;;;;;;5.25;2.85;;;27.80;99.90;;;;;;10357507;28;20201;-78
2023/06/25 08:43:27;;;;;;;5.00;3.60;;;28.00;99.90;;;;;;10358205;28;20190;-79
2023/06/25 08:48:54;;;;;;;4.10;3.30;;;28.60;99.90;;;;;;10358024;28;20194;-79
2023/06/25 08:54:15;;;;;;;5.90;3.20;;;28.90;99.90;;;;;;10359825;28;20280;-77
2023/06/25 08:59:36;;;;;;;6.35;4.05;;;29.40;99.90;;;;;;10384955;28;20240;-78
2023/06/25 09:05:10;;;;;;;3.00;2.67;;;28.60;99.90;;;;;;10357515;28;20229;-79
2023/06/25 09:10:36;;;;;;;4.90;3.08;;;29.30;99.90;;;;;;10357285;28;20475;-78
2023/06/25 09:16:03;;;;;;;3.55;2.85;;;29.90;99.90;;;;;;10369779;28;20213;-79
2023/06/25 09:21:37;;;;;;;4.93;3.20;;;30.00;99.90;;;;;;10383424;28;20207;-77
2023/06/25 09:26:58;;;;;;;3.78;2.75;;;29.70;99.90;;;;;;10355732;28;20208;-78
2023/06/25 09:32:20;;;;;;;3.75;2.70;;;29.90;99.90;;;;;;10355567;28;20223;-80
2023/06/25 09:37:41;;;;;;;3.60;2.30;;;30.50;99.90;;;;;;10356343;28;20409;-80
2023/06/25 09:43:05;;;;;;;4.47;2.75;;;30.90;99.90;;;;;;10367606;28;20288;-78
2023/06/25 09:48:27;;;;;;;2.58;2.38;;;31.20;99.90;;;;;;10356252;28;20198;-78
2023/06/25 09:53:52;;;;;;;3.25;2.47;;;31.60;99.90;;;;;;10354067;28;20224;-78
2023/06/25 09:59:13;;;;;;;4.90;2.20;;;30.60;99.90;;;;;;10383811;28;20214;-78
2023/06/25 10:04:37;;;;;;;6.40;3.25;;;30.50;99.90;;;;;;10354586;28;20283;-78
2023/06/25 10:09:58;;;;;;;2.47;1.70;;;30.80;99.90;;;;;;10355342;28;20233;-79
2023/06/25 10:15:30;;;;;;;3.38;2.50;;;31.10;99.90;;;;;;10353837;28;20206;-78
2023/06/25 10:20:57;;;;;;;5.32;2.33;;;30.30;99.90;;;;;;10377692;28;20197;-78
2023/06/25 10:26:18;;;;;;;3.70;2.40;;;29.90;99.90;;;;;;10391303;28;20201;-80
2023/06/25 10:31:41;;;;;;;2.35;2.15;;;30.30;99.90;;;;;;10353719;28;20268;-80
2023/06/25 10:37:04;;;;;;;2.35;2.15;;;30.20;99.90;;;;;;10353822;28;20194;-78
2023/06/25 10:42:29;;;;;;;4.10;1.90;;;30.50;99.90;;;;;;10352937;28;20206;-79
2023/06/25 10:48:04;;;;;;;4.78;2.17;;;31.10;99.90;;;;;;10354748;28;20253;-78
2023/06/25 10:53:25;;;;;;;3.08;1.80;;;31.40;99.90;;;;;;10367150;28;20414;-79
2023/06/25 10:58:54;;;;;;;5.25;2.10;;;31.80;99.90;;;;;;10373089;28;20255;-78
2023/06/25 11:04:15;;;;;;;3.45;2.10;;;32.10;99.90;;;;;;10362028;28;20241;-78
2023/06/25 11:09:37;;;;;;;2.42;2.15;;;32.40;99.90;;;;;;10361431;28;20209;-80
2023/06/25 11:14:59;;;;;;;6.68;2.45;;;32.00;99.90;;;;;;10361982;28;20236;-79
2023/06/25 11:20:24;;;;;;;3.45;2.20;;;31.00;99.90;;;;;;10378566;28;20491;-79
2023/06/25 11:25:45;;;;;;;2.70;2.47;;;30.80;99.90;;;;;;10383416;28;20202;-78
2023/06/25 11:31:07;;;;;;;2.95;2.15;;;31.20;99.90;;;;;;10360225;28;20290;-79
2023/06/25 11:36:28;;;;;;;7.63;2.60;;;31.80;99.90;;;;;;10360863;28;20505;-78
2023/06/25 11:41:49;;;;;;;5.25;2.00;;;32.10;99.90;;;;;;10360436;28;20240;-78
2023/06/25 11:47:14;;;;;;;2.70;1.90;;;32.30;99.90;;;;;;10360967;28;20443;-77
2023/06/25 11:52:36;;;;;;;2.65;1.98;;;32.30;99.90;;;;;;10364686;28;20240;-80
2023/06/25 11:57:57;;;;;;;2.30;1.80;;;31.30;99.90;;;;;;10364259;28;20202;-80
2023/06/25 12:03:18;;;;;;;7.57;2.40;;;30.50;99.90;;;;;;10358134;28;20253;-77
2023/06/25 12:08:39;;;;;;;2.33;1.88;;;30.60;99.90;;;;;;10359156;28;20412;-78
2023/06/25 12:14:00;;;;;;;3.70;2.35;;;30.00;99.90;;;;;;10358449;28;20228;-78
2023/06/25 12:19:22;;;;;;;4.10;2.30;;;29.60;99.90;;;;;;10370193;28;20197;-78
2023/06/25 12:24:43;;;;;;;3.60;2.10;;;30.30;99.90;;;;;;10382247;28;20519;-77
2023/06/25 12:30:06;;;;;;;2.65;2.00;;;30.90;99.90;;;;;;10359232;28;20217;-78
2023/06/25 12:35:28;;;;;;;3.40;2.20;;;31.40;99.90;;;;;;10371786;28;20481;-78
2023/06/25 12:40:56;;;;;;;2.05;1.85;;;31.60;99.90;;;;;;10357360;28;20439;-78
2023/06/25 12:46:18;;;;;;;5.63;2.17;;;31.80;99.90;;;;;;10371145;28;20201;-77
2023/06/25 12:51:39;;;;;;;4.25;2.30;;;31.90;99.90;;;;;;10357469;28;20232;-78
2023/06/25 12:57:00;;;;;;;2.55;1.98;;;31.70;99.90;;;;;;10386290;28;20284;-78
2023/06/25 13:02:21;;;;;;;2.30;2.10;;;31.20;99.90;;;;;;10397751;28;20333;-80
2023/06/25 13:07:43;;;;;;;3.55;1.92;;;31.20;99.90;;;;;;10382484;28;20213;-79
2023/06/25 13:13:04;;;;;;;3.92;2.20;;;31.10;99.90;;;;;;10383406;28;20220;-77
2023/06/25 13:18:25;;;;;;;2.28;1.83;;;31.10;99.90;;;;;;10397409;28;20186;-78
2023/06/25 13:23:47;;;;;;;3.28;2.15;;;31.40;99.90;;;;;;10391612;28;20209;-79
2023/06/25 13:29:08;;;;;;;4.05;2.22;;;30.90;99.90;;;;;;10396363;28;20476;-79
2023/06/25 13:34:29;;;;;;;2.38;1.67;;;31.10;99.90;;;;;;10397026;28;20204;-80
2023/06/25 13:39:51;;;;;;;2.10;1.90;;;31.00;99.90;;;;;;10359483;28;20292;-79
2023/06/25 13:45:12;;;;;;;2.05;1.85;;;30.60;99.90;;;;;;10356136;28;20213;-79
2023/06/25 13:50:34;;;;;;;2.63;2.00;;;30.60;99.90;;;;;;10363894;28;20225;-78
2023/06/25 13:55:59;;;;;;;2.10;1.90;;;30.90;99.90;;;;;;10355890;28;20200;-78
2023/06/25 14:01:21;;;;;;;2.05;1.85;;;30.90;99.90;;;;;;10358126;28;20425;-78
2023/06/25 14:06:42;;;;;;;4.80;2.17;;;30.90;99.90;;;;;;10380015;28;20403;-79
2023/06/25 14:12:04;;;;;;;3.40;1.88;;;30.70;99.90;;;;;;10353903;28;20309;-79
2023/06/25 14:17:25;;;;;;;2.13;1.92;;;30.40;99.90;;;;;;10355258;28;20194;-78
2023/06/25 14:22:47;;;;;;;2.28;2.08;;;29.80;99.90;;;;;;10373645;28;20216;-78
2023/06/25 14:28:09;;;;;;;3.13;2.10;;;29.30;99.90;;;;;;10380750;28;20387;-78
2023/06/25 14:33:30;;;;;;;4.00;2.38;;;29.40;99.90;;;;;;10395172;28;20227;-79
2023/06/25 14:38:51;;;;;;;1.80;1.70;;;29.50;99.90;;;;;;10360877;28;20213;-78
2023/06/25 14:44:13;;;;;;;2.78;2.33;;;29.70;99.90;;;;;;10384644;28;20269;-78
2023/06/25 14:49:34;;;;;;;4.22;2.00;;;29.30;99.90;;;;;;10375214;28;20197;-79
2023/06/25 14:54:55;;;;;;;2.83;2.10;;;29.00;99.90;;;;;;10353975;28;20205;-78
2023/06/25 15:00:17;;;;;;;3.45;2.17;;;28.90;99.90;;;;;;10354087;28;20190;-78
2023/06/25 15:05:38;;;;;;;2.55;2.35;;;29.10;99.90;;;;;;10402810;28;20235;-79
2023/06/25 15:11:00;;;;;;;3.10;2.42;;;29.20;99.90;;;;;;10353894;28;20321;-80
2023/06/25 15:16:22;;;;;;;3.35;2.35;;;29.30;99.90;;;;;;10352573;28;20198;-79
2023/06/25 15:21:43;;;;;;;3.70;2.65;;;29.30;99.90;;;;;;10374329;28;20210;-78
2023/06/25 15:27:04;;;;;;;5.50;2.70;;;28.90;99.90;;;;;;10353773;28;20189;-80
2023/06/25 15:32:26;;;;;;;2.95;2.40;;;28.60;99.90;;;;;;10352455;28;20300;-78
2023/06/25 15:37:47;;;;;;;4.30;2.90;;;28.30;99.90;;;;;;10353246;28;20197;-78
2023/06/25 15:43:09;;;;;;;2.90;2.60;;;27.60;99.90;;;;;;10372851;28;20194;-77
2023/06/25 15:48:31;;;;;;;3.80;2.45;;;27.60;99.90;;;;;;10359475;28;20209;-77
2023/06/25 15:53:55;;;;;;;8.30;3.00;;;27.50;99.90;;;;;;10370192;28;20531;-77
2023/06/25 15:59:16;;;;;;;3.92;2.70;;;27.50;99.90;;;;;;10360280;28;20194;-78
2023/06/25 16:04:37;;;;;;;6.65;3.00;;;27.40;99.90;;;;;;10386488;28;20237;-79
2023/06/25 16:09:59;;;;;;;3.55;2.17;;;27.30;99.90;;;;;;10359292;28;20213;-79
2023/06/25 16:15:20;;;;;;;4.30;3.47;;;27.30;99.90;;;;;;10359587;28;20200;-78
2023/06/25 16:20:42;;;;;;;2.72;2.20;;;27.40;99.90;;;;;;10375517;28;20197;-78
2023/06/25 16:26:04;;;;;;;6.15;3.13;;;27.40;99.90;;;;;;10363500;28;20206;-80
2023/06/25 16:31:25;;;;;;;3.63;2.42;;;27.40;99.90;;;;;;10374540;28;20247;-79
2023/06/25 16:36:46;;;;;;;3.60;2.30;;;27.40;99.90;;;;;;10392125;28;20193;-77
2023/06/25 16:42:07;;;;;;;4.07;2.38;;;27.30;99.90;;;;;;10399357;28;20197;-78
2023/06/25 16:47:28;;;;;;;2.92;2.28;;;27.20;99.90;;;;;;10375932;28;20496;-80
2023/06/25 16:52:49;;;;;;;2.47;2.28;;;27.10;99.90;;;;;;10394355;28;20235;-80
2023/06/25 16:58:10;;;;;;;3.85;2.35;;;27.00;99.90;;;;;;10375300;28;20204;-78
2023/06/25 17:03:32;;;;;;;2.40;2.20;;;27.00;99.90;;;;;;10395194;28;20424;-78
2023/06/25 17:08:53;;;;;;;2.45;2.25;;;26.80;99.90;;;;;;10401801;28;20276;-79
2023/06/25 17:14:14;;;;;;;3.25;1.80;;;26.80;99.90;;;;;;10372446;28;20304;-77
2023/06/25 17:19:36;;;;;;;3.13;2.08;;;26.70;99.90;;;;;;10369534;28;20220;-79
2023/06/25 17:24:57;;;;;;;2.75;2.38;;;26.60;99.90;;;;;;10397394;28;20271;-78
2023/06/25 17:30:18;;;;;;;3.05;2.10;;;26.60;99.90;;;;;;10392233;28;20196;-78
2023/06/25 17:35:39;;;;;;;3.22;2.42;;;26.40;99.90;;;;;;10361430;28;20221;-78
2023/06/25 17:41:00;;;;;;;5.05;2.55;;;26.30;99.90;;;;;;10369864;28;20189;-79
2023/06/25 17:46:22;;;;;;;5.63;2.30;;;26.00;99.90;;;;;;10391232;28;20193;-77
2023/06/25 17:51:43;;;;;;;2.30;2.10;;;25.80;99.90;;;;;;10393289;28;20251;-77
2023/06/25 17:57:04;;;;;;;5.70;2.78;;;25.70;99.90;;;;;;10396254;28;20212;-78
2023/06/25 18:02:27;;;;;;;5.60;2.78;;;25.50;99.90;;;;;;10390079;28;20256;-78
2023/06/25 18:07:49;;;;;;;6.90;2.60;;;25.30;99.90;;;;;;10395843;28;20193;-78
2023/06/25 18:13:12;;;;;;;3.88;2.75;;;25.20;99.90;;;;;;10394329;28;20231;-78
2023/06/25 18:18:42;;;;;;;3.92;2.50;;;25.00;99.90;;;;;;10375971;28;20200;-79
2023/06/25 18:24:03;;;;;;;4.22;2.53;;;24.90;99.90;;;;;;10395335;28;20425;-77
2023/06/25 18:29:25;;;;;;;3.67;2.13;;;24.70;99.90;;;;;;10395420;28;20193;-77
2023/06/25 18:34:46;;;;;;;4.68;2.70;;;24.60;99.90;;;;;;10355873;28;20227;-78
2023/06/25 18:40:08;;;;;;;3.78;2.80;;;24.40;99.90;;;;;;10393492;28;20357;-78
2023/06/25 18:45:29;;;;;;;3.25;2.42;;;24.20;99.90;;;;;;10389538;28;20269;-78
2023/06/25 18:50:52;;;;;;;3.92;2.45;;;24.30;99.90;;;;;;10367079;28;20519;-77
2023/06/25 18:56:14;;;;;;;3.75;2.83;;;24.00;99.90;;;;;;10390705;28;20216;-79
2023/06/25 19:01:35;;;;;;;2.65;2.45;;;24.00;99.90;;;;;;10377942;28;20205;-78
2023/06/25 19:06:56;;;;;;;3.85;3.25;;;23.80;99.90;;;;;;10353304;28;20221;-78
2023/06/25 19:12:18;;;;;;;3.83;2.78;;;23.80;99.90;;;;;;10377242;28;20220;-79
2023/06/25 19:17:39;;;;;;;4.80;3.40;;;23.70;99.90;;;;;;10373760;28;20264;-78
2023/06/25 19:23:00;;;;;;;2.92;2.50;;;23.60;99.90;;;;;;10401116;28;20240;-78
2023/06/25 19:28:41;;;;;;;3.30;2.85;;;23.40;99.90;;;;;;10400655;28;20197;-78
2023/06/25 19:34:03;;;;;;;2.78;2.58;;;23.30;99.90;;;;;;10359816;28;20232;-79
2023/06/25 19:39:24;;;;;;;4.32;3.22;;;23.20;99.90;;;;;;10360903;28;20354;-78
2023/06/25 19:44:45;;;;;;;4.25;3.25;;;23.20;99.90;;;;;;10359238;28;20212;-76
2023/06/25 19:50:10;;;;;;;4.43;3.13;;;22.90;99.90;;;;;;10359477;28;20496;-77
2023/06/25 19:55:32;;;;;;;4.80;3.40;;;22.80;99.90;;;;;;10392203;28;20205;-78
2023/06/25 20:00:53;;;;;;;5.53;3.20;;;22.80;99.90;;;;;;10365125;28;20216;-78
2023/06/25 20:06:14;;;;;;;5.13;3.58;;;22.70;99.90;;;;;;10359620;28;20413;-77
2023/06/25 20:11:35;;;;;;;5.90;3.90;;;22.60;99.90;;;;;;10374996;28;20305;-79
2023/06/25 20:16:57;;;;;;;4.47;2.95;;;22.50;99.90;;;;;;10344782;28;20227;-77
2023/06/25 20:22:18;;;;;;;4.40;3.25;;;22.40;99.90;;;;;;10393651;28;20272;-78
2023/06/25 20:27:39;;;;;;;6.63;3.80;;;22.30;99.90;;;;;;10373236;28;20198;-77
2023/06/25 20:33:04;;;;;;;5.93;4.07;;;22.20;99.90;;;;;;10344191;28;20233;-78
2023/06/25 20:38:25;;;;;;;6.95;4.75;;;22.10;99.90;;;;;;10357638;28;20190;-77
2023/06/25 20:43:46;;;;;;;6.10;4.72;;;22.00;99.90;;;;;;10361116;28;20240;-78
2023/06/25 20:49:07;;;;;;;9.43;5.88;;;21.80;99.90;;;;;;10359141;28;20194;-77
2023/06/25 20:54:28;;;;;;;7.80;5.03;;;21.70;99.90;;;;;;10379850;28;20287;-78
2023/06/25 20:59:50;;;;;;;7.82;4.78;;;21.60;99.90;;;;;;10358216;28;20209;-77
2023/06/25 21:05:11;;;;;;;6.85;4.40;;;21.40;99.90;;;;;;10357570;28;20229;-78
2023/06/25 21:10:33;;;;;;;5.63;3.83;;;21.30;99.90;;;;;;10366830;28;20236;-77
2023/06/25 21:15:54;;;;;;;5.93;3.88;;;21.20;99.90;;;;;;10398316;28;20211;-78
2023/06/25 21:21:16;;;;;;;5.85;3.40;;;21.10;99.90;;;;;;10396557;28;20224;-77
2023/06/25 21:26:37;;;;;;;11.55;3.83;;;21.00;99.90;;;;;;10404300;28;20211;-77
2023/06/25 21:31:58;;;;;;;4.80;3.33;;;20.90;99.90;;;;;;10397455;28;20291;-78
2023/06/25 21:37:19;;;;;;;9.00;5.20;;;20.80;99.90;;;;;;10390216;28;20201;-78
2023/06/25 21:42:40;;;;;;;8.57;5.00;;;20.80;99.90;;;;;;10355321;28;20202;-78
2023/06/25 21:48:02;;;;;;;7.47;4.72;;;20.70;99.90;;;;;;10356285;28;20190;-78
2023/06/25 21:53:24;;;;;;;6.60;5.22;;;20.70;99.90;;;;;;10370623;28;20220;-78
2023/06/25 21:58:45;;;;;;;8.23;5.57;;;20.60;99.90;;;;;;10356818;28;20190;-77
2023/06/25 22:04:06;;;;;;;8.93;5.47;;;20.60;99.90;;;;;;10355239;28;20394;-77
2023/06/25 22:09:28;;;;;;;7.00;5.38;;;20.40;99.90;;;;;;10358888;28;20201;-78
2023/06/25 22:14:49;;;;;;;7.75;4.95;;;20.40;99.90;;;;;;10369954;28;20232;-78
2023/06/25 22:20:11;;;;;;;8.52;5.63;;;20.30;99.90;;;;;;10372231;28;20250;-77
2023/06/25 22:25:32;;;;;;;9.75;5.97;;;20.10;99.90;;;;;;10395879;28;20457;-77
2023/06/25 22:30:54;;;;;;;8.90;5.13;;;20.00;99.90;;;;;;10386684;28;20205;-77
2023/06/25 22:36:15;;;;;;;9.25;5.88;;;19.90;99.90;;;;;;10395485;28;20197;-77
2023/06/25 22:41:37;;;;;;;7.18;5.72;;;19.90;99.90;;;;;;10389534;28;20250;-77
2023/06/25 22:46:58;;;;;;;10.77;6.05;;;19.80;99.90;;;;;;10395356;28;20475;-77
2023/06/25 22:52:19;;;;;;;9.32;5.53;;;19.60;99.90;;;;;;10360734;28;20229;-77
2023/06/25 22:57:40;;;;;;;9.25;5.88;;;19.60;99.90;;;;;;10376416;28;20197;-77
2023/06/25 23:03:02;;;;;;;9.55;5.28;;;19.50;99.90;;;;;;10382702;28;20232;-77
2023/06/25 23:08:23;;;;;;;9.65;6.40;;;19.40;99.90;;;;;;10401812;28;20201;-78
2023/06/25 23:13:44;;;;;;;9.05;7.03;;;19.40;99.90;;;;;;10401530;28;20274;-77
2023/06/25 23:19:06;;;;;;;13.00;6.95;;;19.30;99.90;;;;;;10399074;28;20223;-77
2023/06/25 23:24:37;;;;;;;7.82;5.68;;;19.30;22.50;;;;;;10402543;28;20403;-77
2023/06/25 23:30:00;;;;;;;12.07;7.00;;;19.10;1.00;;;;;;10395607;28;20207;-78
2023/06/25 23:35:22;;;;;;;10.38;6.35;;;18.90;1.00;;;;;;10376565;28;20296;-77
2023/06/25 23:40:44;;;;;;;9.30;6.03;;;18.80;1.00;;;;;;10360029;28;20256;-77
2023/06/25 23:46:05;;;;;;;10.30;5.97;;;18.70;1.00;;;;;;10377223;28;20205;-78
2023/06/25 23:51:26;;;;;;;8.48;6.07;;;18.60;1.00;;;;;;10401130;28;20274;-77
2023/06/25 23:56:48;;;;;;;8.70;5.50;;;18.50;1.00;;;;;;10400321;28;20200;-77
